Time;durP1;ratioP1;P1;durP2;ratioP2;P2;SDS_P1;SDS_P2;PMS_P1;PMS_P2;Temp;Humidity;BMP_temperature;BMP_pressure;BME280_temperature;BME280_humidity;BME280_pressure;Samples;Min_cycle;Max_cycle;Signal;HPM_P1;HPM_P2
2024/01/05 00:01:37;;;;;;;1.65;1.55;;;;;;;4.04;88.12;99981.16;5034898;28;20033;-77
2024/01/05 00:04:03;;;;;;;2.72;0.98;;;;;;;4.09;88.22;99972.16;5038526;28;20106;-76
2024/01/05 00:06:29;;;;;;;0.82;0.63;;;;;;;4.19;88.41;99969.09;5038311;28;20052;-77
2024/01/05 00:08:55;;;;;;;2.00;1.15;;;;;;;3.96;87.98;99966.03;5055628;28;20416;-77
2024/01/05 00:11:21;;;;;;;1.17;0.90;;;;;;;3.99;88.40;99961.94;5038611;28;20051;-76
2024/01/05 00:13:48;;;;;;;1.20;1.10;;;;;;;4.08;88.41;99957.31;5020709;28;20111;-77
2024/01/05 00:16:21;;;;;;;0.95;0.95;;;;;;;4.00;88.54;99958.94;5056280;28;20044;-77
2024/01/05 00:18:47;;;;;;;1.52;0.75;;;;;;;4.09;88.03;99962.28;5055379;28;20068;-77
2024/01/05 00:21:23;;;;;;;0.82;0.82;;;;;;;4.07;87.56;99961.84;5039149;28;20040;-76
2024/01/05 00:23:50;;;;;;;0.60;0.60;;;;;;;3.93;88.60;99952.59;5033527;28;20139;-76
2024/01/05 00:26:16;;;;;;;1.92;1.10;;;;;;;3.85;88.60;99951.56;5058965;28;20098;-76
2024/01/05 00:28:42;;;;;;;12.00;0.95;;;;;;;3.99;88.21;99945.97;5041882;28;20032;-77
2024/01/05 00:31:12;;;;;;;0.70;0.63;;;;;;;3.93;89.25;99952.59;5059203;28;20391;-76
2024/01/05 00:33:42;;;;;;;5.32;1.40;;;;;;;3.77;89.05;99933.78;5036558;28;20155;-76
2024/01/05 00:36:11;;;;;;;0.45;0.45;;;;;;;3.89;88.60;99933.06;5039566;28;20060;-77
2024/01/05 00:38:38;;;;;;;0.82;0.80;;;;;;;4.00;88.49;99926.19;5055558;28;20047;-77
2024/01/05 00:41:04;;;;;;;1.80;1.02;;;;;;;3.82;88.14;99930.91;5057404;28;20036;-76
2024/01/05 00:43:30;;;;;;;0.60;0.60;;;;;;;3.68;89.03;99922.41;5038722;28;20039;-76
2024/01/05 00:45:56;;;;;;;1.73;1.02;;;;;;;3.89;88.96;99914.41;5037634;28;22600;-77
2024/01/05 00:48:22;;;;;;;1.27;1.08;;;;;;;3.80;88.91;99919.03;5039092;28;20032;-76
2024/01/05 00:50:47;;;;;;;1.38;1.10;;;;;;;3.88;89.03;99918.16;5041126;28;20124;-76
2024/01/05 00:53:13;;;;;;;1.40;1.25;;;;;;;4.17;88.19;99910.03;5038552;28;20021;-76
2024/01/05 00:55:38;;;;;;;1.85;0.82;;;;;;;4.01;87.43;99917.09;5039081;28;20024;-77
2024/01/05 00:58:04;;;;;;;1.08;0.50;;;;;;;3.82;88.62;99908.81;5058127;28;20048;-76
2024/01/05 01:00:30;;;;;;;0.70;0.70;;;;;;;3.78;88.73;99918.56;5054259;28;20030;-77
2024/01/05 01:02:55;;;;;;;1.10;1.00;;;;;;;3.87;88.57;99921.94;5021499;28;20501;-77
2024/01/05 01:05:21;;;;;;;0.82;0.82;;;;;;;3.92;88.84;99916.41;5057200;28;20039;-76
2024/01/05 01:07:47;;;;;;;0.68;0.68;;;;;;;3.96;88.62;99919.97;5039730;28;20119;-76
2024/01/05 01:10:12;;;;;;;0.95;0.85;;;;;;;4.00;88.29;99910.22;5039702;28;20036;-76
2024/01/05 01:12:38;;;;;;;0.40;0.40;;;;;;;4.03;88.03;99918.31;5042322;28;20170;-76
2024/01/05 01:15:04;;;;;;;0.98;0.95;;;;;;;3.97;88.23;99916.22;5035415;28;20062;-76
2024/01/05 01:17:30;;;;;;;0.50;0.50;;;;;;;3.84;87.46;99915.38;5060126;28;20621;-77
2024/01/05 01:19:56;;;;;;;0.88;0.88;;;;;;;3.85;87.79;99924.16;5057882;28;20029;-76
2024/01/05 01:22:21;;;;;;;1.08;0.98;;;;;;;4.01;87.54;99923.19;5039650;28;20055;-76
2024/01/05 01:24:47;;;;;;;1.42;0.88;;;;;;;3.93;87.72;99918.72;5055226;28;20037;-76
2024/01/05 01:27:14;;;;;;;0.88;0.88;;;;;;;3.98;87.70;99918.53;5060570;28;20025;-78
2024/01/05 01:29:39;;;;;;;3.03;1.73;;;;;;;3.93;88.00;99921.41;5058224;28;20037;-76
2024/01/05 01:32:05;;;;;;;1.42;1.15;;;;;;;4.12;87.00;99920.91;5056708;28;20028;-76
2024/01/05 01:34:30;;;;;;;0.88;0.60;;;;;;;3.88;88.26;99918.94;5058835;28;20037;-77
2024/01/05 01:36:56;;;;;;;2.00;1.13;;;;;;;3.96;88.29;99919.97;5059184;28;20035;-76
2024/01/05 01:39:21;;;;;;;1.38;1.17;;;;;;;4.00;87.41;99911.00;5055384;28;20059;-76
2024/01/05 01:41:46;;;;;;;1.92;0.98;;;;;;;4.00;87.43;99904.88;5054039;28;20051;-76
2024/01/05 01:44:12;;;;;;;1.35;0.80;;;;;;;3.90;87.99;99905.31;5037858;28;20044;-77
2024/01/05 01:46:39;;;;;;;2.28;1.00;;;;;;;4.04;87.66;99911.13;5058482;28;20109;-77
2024/01/05 01:49:05;;;;;;;1.45;1.35;;;;;;;4.00;87.78;99905.69;5059011;28;20036;-77
2024/01/05 01:51:34;;;;;;;0.73;0.73;;;;;;;4.06;87.69;99907.03;5057444;28;20043;-77
2024/01/05 01:54:02;;;;;;;0.60;0.60;;;;;;;4.09;87.92;99892.25;5054989;28;20043;-77
2024/01/05 01:56:28;;;;;;;1.35;1.25;;;;;;;4.14;86.77;99897.38;5058974;28;20036;-77
2024/01/05 01:58:53;;;;;;;2.90;1.33;;;;;;;3.95;87.62;99892.56;5056571;28;20516;-76
2024/01/05 02:01:19;;;;;;;1.17;1.17;;;;;;;4.02;87.61;99882.16;5053826;28;20029;-76
2024/01/05 02:03:45;;;;;;;1.38;0.68;;;;;;;4.07;87.44;99884.59;5054578;28;20045;-76
2024/01/05 02:06:10;;;;;;;1.83;1.25;;;;;;;3.99;87.83;99884.72;5039629;28;20040;-76
2024/01/05 02:08:36;;;;;;;1.15;1.00;;;;;;;3.94;88.35;99883.03;5063067;28;20052;-76
2024/01/05 02:11:02;;;;;;;1.60;0.60;;;;;;;4.10;87.78;99883.97;5029834;28;20136;-76
2024/01/05 02:13:28;;;;;;;1.02;0.98;;;;;;;4.13;87.70;99891.28;5063608;28;20116;-76
2024/01/05 02:15:53;;;;;;;8.23;1.15;;;;;;;4.05;87.83;99886.03;5060913;28;20090;-76
2024/01/05 02:18:19;;;;;;;1.40;1.00;;;;;;;4.00;88.20;99879.03;5042691;28;20090;-76
2024/01/05 02:20:44;;;;;;;5.97;2.05;;;;;;;3.96;88.37;99877.38;5044621;28;20063;-76
2024/01/05 02:23:21;;;;;;;0.68;0.68;;;;;;;4.16;88.21;99879.19;5043134;28;20036;-76
2024/01/05 02:25:46;;;;;;;0.88;0.80;;;;;;;4.22;88.08;99875.19;5060823;28;20503;-76
2024/01/05 02:28:12;;;;;;;2.45;1.10;;;;;;;4.28;87.14;99879.97;5044073;28;20128;-76
2024/01/05 02:30:37;;;;;;;0.52;0.52;;;;;;;4.16;87.28;99871.94;5039619;28;20043;-76
2024/01/05 02:33:03;;;;;;;3.90;1.15;;;;;;;4.17;87.83;99868.19;5042172;28;20033;-77
2024/01/05 02:35:28;;;;;;;0.85;0.77;;;;;;;3.99;88.15;99868.72;5060885;28;20024;-76
2024/01/05 02:37:54;;;;;;;1.23;1.10;;;;;;;3.80;89.26;99852.47;5045972;28;20032;-77
2024/01/05 02:40:19;;;;;;;1.20;0.88;;;;;;;3.84;89.07;99851.47;5059514;28;20382;-76
2024/01/05 02:42:45;;;;;;;1.20;1.13;;;;;;;3.83;89.72;99846.50;5042651;28;20027;-77
2024/01/05 02:45:10;;;;;;;2.08;1.52;;;;;;;3.99;89.59;99848.19;5061437;28;20045;-76
2024/01/05 02:47:36;;;;;;;0.98;0.90;;;;;;;3.98;90.00;99848.53;5044059;28;20062;-77
2024/01/05 02:50:02;;;;;;;1.75;1.48;;;;;;;3.94;90.72;99839.63;5059501;28;20032;-77
2024/01/05 02:52:28;;;;;;;0.80;0.70;;;;;;;3.84;90.72;99848.81;5052739;28;20611;-76
2024/01/05 02:54:53;;;;;;;3.38;1.60;;;;;;;3.86;91.61;99835.97;5042000;28;20044;-76
2024/01/05 02:57:19;;;;;;;1.75;0.65;;;;;;;3.88;91.37;99830.31;5042509;28;20429;-78
2024/01/05 02:59:44;;;;;;;2.88;1.35;;;;;;;4.09;90.37;99831.00;5056368;28;20119;-78
2024/01/05 03:02:10;;;;;;;1.92;1.67;;;;;;;3.80;91.58;99821.31;5046760;28;20094;-77
2024/01/05 03:04:35;;;;;;;1.80;0.80;;;;;;;4.12;90.58;99823.09;5029965;28;20037;-76
2024/01/05 03:07:00;;;;;;;1.38;1.27;;;;;;;4.04;90.65;99831.22;5030159;28;20043;-76
2024/01/05 03:09:26;;;;;;;0.80;0.80;;;;;;;3.88;91.40;99816.97;5042736;28;20036;-76
2024/01/05 03:11:51;;;;;;;0.88;0.75;;;;;;;3.93;91.58;99822.88;5027115;28;20595;-77
2024/01/05 03:14:17;;;;;;;1.40;1.00;;;;;;;4.02;91.15;99828.09;5045390;28;20024;-77
2024/01/05 03:16:42;;;;;;;1.63;1.02;;;;;;;4.07;91.26;99825.22;5046059;28;20064;-77
2024/01/05 03:19:07;;;;;;;0.85;0.70;;;;;;;3.87;91.62;99821.53;5044423;28;20042;-77
2024/01/05 03:21:36;;;;;;;1.52;1.42;;;;;;;3.92;92.13;99813.34;5067172;28;20489;-77
2024/01/05 03:24:02;;;;;;;1.67;1.25;;;;;;;4.02;91.07;99820.13;5059070;28;20067;-76
2024/01/05 03:26:27;;;;;;;0.77;0.70;;;;;;;4.04;90.88;99813.38;5057564;28;20020;-76
2024/01/05 03:28:52;;;;;;;0.90;0.75;;;;;;;4.11;91.40;99805.59;5041332;28;20048;-76
2024/01/05 03:31:19;;;;;;;0.65;0.65;;;;;;;4.12;91.06;99795.72;5039328;28;20072;-76
2024/01/05 03:33:45;;;;;;;1.42;1.30;;;;;;;4.01;90.89;99794.56;5037285;28;20081;-77
2024/01/05 03:36:10;;;;;;;5.00;1.95;;;;;;;4.11;90.01;99794.94;5040363;28;20040;-77
2024/01/05 03:38:36;;;;;;;2.20;0.85;;;;;;;4.05;90.73;99784.81;5038827;28;20069;-77
2024/01/05 03:41:02;;;;;;;10.57;1.75;;;;;;;3.84;90.81;99782.25;5049211;28;20040;-77
2024/01/05 03:43:27;;;;;;;0.40;0.40;;;;;;;3.88;91.36;99782.38;5039339;28;20064;-76
2024/01/05 03:45:54;;;;;;;1.08;1.08;;;;;;;3.86;91.27;99776.59;5038960;28;20518;-77
2024/01/05 03:48:20;;;;;;;2.05;1.48;;;;;;;3.95;91.25;99774.63;5057417;28;20433;-77
2024/01/05 03:50:45;;;;;;;1.08;1.05;;;;;;;3.77;92.04;99773.28;5057506;28;20036;-77
2024/01/05 03:53:11;;;;;;;1.77;1.30;;;;;;;3.79;91.57;99771.06;5022781;28;20566;-76
2024/01/05 03:55:37;;;;;;;0.68;0.68;;;;;;;3.76;91.82;99764.50;5046675;28;20059;-76
2024/01/05 03:58:02;;;;;;;1.52;1.35;;;;;;;3.82;92.52;99765.06;5039010;28;21154;-77
2024/01/05 04:00:28;;;;;;;2.30;1.85;;;;;;;3.99;91.72;99767.53;5056007;28;20075;-77
2024/01/05 04:02:53;;;;;;;1.05;0.95;;;;;;;3.74;92.47;99749.97;5043760;28;20039;-77
2024/01/05 04:05:19;;;;;;;1.35;1.10;;;;;;;3.73;91.93;99759.06;5037151;28;20583;-77
2024/01/05 04:07:44;;;;;;;1.77;1.23;;;;;;;3.84;91.82;99757.50;5055913;28;20062;-76
2024/01/05 04:10:10;;;;;;;0.40;0.40;;;;;;;3.93;90.55;99752.88;5042760;28;20517;-76
2024/01/05 04:12:35;;;;;;;0.88;0.75;;;;;;;3.80;91.45;99759.28;5040422;28;20033;-77
2024/01/05 04:15:00;;;;;;;0.73;0.73;;;;;;;3.73;92.03;99749.19;5040637;28;20178;-76
2024/01/05 04:17:26;;;;;;;0.98;0.70;;;;;;;4.01;90.48;99746.66;5044006;28;20551;-76
2024/01/05 04:19:51;;;;;;;1.75;1.15;;;;;;;3.71;91.76;99742.66;5043964;28;20044;-76
2024/01/05 04:22:17;;;;;;;1.27;1.15;;;;;;;3.68;92.17;99736.09;5059945;28;20028;-76
2024/01/05 04:24:45;;;;;;;1.67;1.30;;;;;;;3.84;91.78;99738.88;5058801;28;20067;-77
2024/01/05 04:27:10;;;;;;;2.03;1.20;;;;;;;3.74;91.86;99731.31;5059127;28;20491;-77
2024/01/05 04:29:38;;;;;;;1.75;1.45;;;;;;;3.79;91.82;99725.78;5042730;28;20052;-76
2024/01/05 04:32:04;;;;;;;1.60;0.90;;;;;;;3.72;92.79;99733.56;5060288;28;20021;-76
2024/01/05 04:34:29;;;;;;;1.90;1.33;;;;;;;3.80;92.80;99735.31;5059008;28;20059;-76
2024/01/05 04:36:55;;;;;;;1.75;1.42;;;;;;;3.79;92.43;99720.47;5058397;28;20037;-77
2024/01/05 04:39:20;;;;;;;1.58;1.17;;;;;;;3.94;92.11;99722.47;5037546;28;20029;-76
2024/01/05 04:41:46;;;;;;;1.75;0.50;;;;;;;3.90;92.05;99717.03;5023279;28;20032;-76
2024/01/05 04:44:13;;;;;;;0.90;0.77;;;;;;;3.88;92.92;99718.47;5056273;28;20858;-76
2024/01/05 04:46:38;;;;;;;1.10;1.08;;;;;;;3.76;92.75;99724.56;5059775;28;20048;-76
2024/01/05 04:49:04;;;;;;;1.33;1.23;;;;;;;3.90;92.33;99711.72;5057204;28;20024;-76
2024/01/05 04:51:29;;;;;;;1.33;0.90;;;;;;;4.01;91.99;99709.34;5060623;28;20103;-76
2024/01/05 04:53:55;;;;;;;0.77;0.73;;;;;;;3.99;92.03;99700.97;5041741;28;20063;-77
2024/01/05 04:56:20;;;;;;;1.42;1.30;;;;;;;3.86;92.79;99696.72;5063727;28;20127;-76
2024/01/05 04:58:45;;;;;;;0.57;0.57;;;;;;;3.81;92.56;99704.94;5058721;28;20036;-76
2024/01/05 05:01:11;;;;;;;0.95;0.82;;;;;;;3.95;92.62;99708.06;5035646;28;20044;-76
2024/01/05 05:03:38;;;;;;;1.45;1.33;;;;;;;3.82;92.56;99706.47;5040179;28;20028;-78
2024/01/05 05:06:03;;;;;;;1.02;0.75;;;;;;;3.73;92.70;99706.59;5053047;28;20505;-76
2024/01/05 05:08:28;;;;;;;0.68;0.68;;;;;;;3.83;92.52;99697.41;5041055;28;20037;-76
2024/01/05 05:10:54;;;;;;;0.50;0.50;;;;;;;3.79;92.88;99701.84;5056428;28;20068;-76
2024/01/05 05:13:19;;;;;;;1.45;0.98;;;;;;;3.75;92.80;99706.28;5057687;28;20284;-76
2024/01/05 05:15:45;;;;;;;2.22;1.67;;;;;;;3.65;93.13;99705.59;5060322;28;20036;-76
2024/01/05 05:18:10;;;;;;;2.10;1.00;;;;;;;3.58;94.09;99704.59;5026125;28;20082;-76
2024/01/05 05:20:36;;;;;;;0.60;0.60;;;;;;;3.71;92.52;99708.03;5048412;28;20065;-77
2024/01/05 05:23:01;;;;;;;0.70;0.70;;;;;;;3.89;92.62;99707.47;5053686;28;20043;-77
2024/01/05 05:25:27;;;;;;;0.95;0.95;;;;;;;3.86;92.62;99692.19;5054931;28;20039;-76
2024/01/05 05:27:52;;;;;;;1.00;0.90;;;;;;;3.74;93.11;99694.06;5056912;28;20072;-76
2024/01/05 05:30:17;;;;;;;1.08;0.95;;;;;;;3.72;92.88;99693.63;5040796;28;20098;-78
2024/01/05 05:32:43;;;;;;;1.23;1.13;;;;;;;3.82;92.66;99683.31;5038087;28;20021;-76
2024/01/05 05:35:08;;;;;;;0.50;0.50;;;;;;;3.57;93.71;99700.38;5041698;28;20174;-76
2024/01/05 05:37:34;;;;;;;0.40;0.40;;;;;;;3.65;93.46;99700.28;5025045;28;20081;-76
2024/01/05 05:39:59;;;;;;;1.48;1.38;;;;;;;3.77;92.73;99694.19;5042247;28;20041;-77
2024/01/05 05:42:25;;;;;;;2.83;1.50;;;;;;;3.60;93.26;99699.72;5026140;28;20036;-76
2024/01/05 05:44:50;;;;;;;1.70;1.17;;;;;;;3.82;92.96;99690.50;5063069;28;20068;-76
2024/01/05 05:47:16;;;;;;;1.60;0.93;;;;;;;3.71;93.30;99692.06;5027134;28;20047;-76
2024/01/05 05:49:41;;;;;;;0.88;0.88;;;;;;;3.77;93.18;99698.72;5059369;28;20038;-76
2024/01/05 05:52:07;;;;;;;1.20;1.02;;;;;;;3.81;93.18;99700.41;5062554;28;20110;-76
2024/01/05 05:54:32;;;;;;;0.68;0.68;;;;;;;3.82;92.84;99693.97;5064636;28;20031;-77
2024/01/05 05:56:58;;;;;;;0.75;0.55;;;;;;;3.75;93.58;99683.09;5061040;28;20124;-76
2024/01/05 05:59:23;;;;;;;0.40;0.40;;;;;;;3.72;93.03;99681.09;5060372;28;20047;-76
2024/01/05 06:01:49;;;;;;;1.13;1.02;;;;;;;3.73;93.51;99677.31;5058075;28;20029;-76
2024/01/05 06:04:14;;;;;;;1.27;1.17;;;;;;;3.68;93.91;99686.31;5062521;28;20045;-76
2024/01/05 06:06:40;;;;;;;0.95;0.90;;;;;;;3.56;94.36;99683.63;5046068;28;20041;-77
2024/01/05 06:09:07;;;;;;;0.45;0.45;;;;;;;3.54;93.95;99691.16;5065530;28;20032;-76
2024/01/05 06:11:33;;;;;;;1.25;0.82;;;;;;;3.56;95.08;99682.88;5060086;28;20020;-77
2024/01/05 06:21:33;;;;;;;0.85;0.77;;;;;;;3.53;94.71;99680.88;5060564;28;20036;-77
2024/01/05 06:23:59;;;;;;;0.50;0.50;;;;;;;3.75;94.41;99684.97;5027221;28;20041;-76
2024/01/05 06:26:25;;;;;;;0.93;0.93;;;;;;;3.77;93.58;99691.53;5045373;28;20032;-78
2024/01/05 06:28:50;;;;;;;0.65;0.65;;;;;;;3.73;93.61;99674.66;5061714;28;20040;-76
2024/01/05 06:31:17;;;;;;;2.42;1.27;;;;;;;3.61;94.39;99687.97;5064000;28;20040;-76
2024/01/05 06:33:42;;;;;;;0.82;0.73;;;;;;;3.61;94.00;99686.09;5037634;28;20790;-77
2024/01/05 06:36:08;;;;;;;1.35;1.08;;;;;;;3.57;94.51;99690.53;5033804;28;20029;-76
2024/01/05 06:38:33;;;;;;;1.77;1.27;;;;;;;3.70;93.83;99688.63;5041308;28;20024;-77
2024/01/05 06:40:58;;;;;;;2.90;0.95;;;;;;;3.63;93.65;99677.75;5058905;28;20033;-76
2024/01/05 06:43:24;;;;;;;2.63;0.82;;;;;;;3.45;95.24;99676.41;5059145;28;20123;-75
2024/01/05 06:45:49;;;;;;;0.55;0.55;;;;;;;3.67;93.98;99681.31;5043145;28;20057;-76
2024/01/05 06:48:15;;;;;;;0.52;0.52;;;;;;;3.67;94.01;99676.78;5062170;28;20424;-75
2024/01/05 06:50:40;;;;;;;2.67;1.10;;;;;;;3.59;94.77;99682.97;5061464;28;20581;-76
2024/01/05 06:53:06;;;;;;;0.85;0.73;;;;;;;3.44;95.32;99683.66;5061826;28;20034;-76
2024/01/05 06:55:32;;;;;;;2.85;0.70;;;;;;;3.47;95.08;99690.16;5042550;28;20123;-77
2024/01/05 06:57:57;;;;;;;0.50;0.50;;;;;;;3.56;94.86;99694.28;5039780;28;20090;-76
2024/01/05 07:00:22;;;;;;;0.82;0.82;;;;;;;3.61;95.01;99695.94;5064383;28;20486;-75
2024/01/05 07:02:48;;;;;;;0.43;0.43;;;;;;;3.61;95.27;99691.41;5060167;28;20464;-75
2024/01/05 07:05:14;;;;;;;1.05;1.05;;;;;;;3.66;94.38;99685.84;5064169;28;20645;-76
2024/01/05 07:07:41;;;;;;;0.60;0.60;;;;;;;3.62;94.54;99676.97;5060581;28;20032;-76
2024/01/05 07:10:08;;;;;;;0.30;0.30;;;;;;;3.47;95.52;99685.63;5058161;28;20032;-76
2024/01/05 07:12:34;;;;;;;1.02;1.02;;;;;;;3.55;94.86;99691.94;5061683;28;20059;-76
2024/01/05 07:14:59;;;;;;;1.13;0.80;;;;;;;3.50;94.73;99684.94;5044151;28;20051;-76
2024/01/05 07:17:25;;;;;;;0.70;0.70;;;;;;;3.67;94.57;99683.97;5043683;28;20504;-76
2024/01/05 07:19:50;;;;;;;0.70;0.70;;;;;;;3.67;94.50;99695.41;5059809;28;20043;-76
2024/01/05 07:22:15;;;;;;;0.80;0.65;;;;;;;3.78;94.01;99692.28;5065044;28;20021;-78
2024/01/05 07:24:41;;;;;;;0.47;0.47;;;;;;;3.82;93.87;99687.84;5056846;28;20448;-76
2024/01/05 07:27:09;;;;;;;0.98;0.90;;;;;;;3.84;93.09;99690.97;5058372;28;20032;-75
2024/01/05 07:29:34;;;;;;;0.52;0.52;;;;;;;3.64;93.90;99685.41;5057987;28;20040;-76
2024/01/05 07:32:01;;;;;;;1.73;0.73;;;;;;;3.78;93.65;99678.97;5038884;28;20063;-75
2024/01/05 07:34:27;;;;;;;1.48;0.68;;;;;;;3.49;93.24;99687.94;5058911;28;20060;-77
2024/01/05 07:36:53;;;;;;;0.30;0.30;;;;;;;3.52;94.66;99687.31;5060327;28;20497;-75
2024/01/05 07:39:18;;;;;;;1.95;0.90;;;;;;;3.49;94.57;99678.09;5058521;28;20044;-76
2024/01/05 07:41:44;;;;;;;1.63;0.65;;;;;;;3.59;94.81;99669.69;5040110;28;20398;-76
2024/01/05 07:44:09;;;;;;;1.23;1.05;;;;;;;3.45;95.31;99671.09;5026597;28;20390;-77
2024/01/05 07:46:41;;;;;;;1.75;1.48;;;;;;;3.36;95.45;99670.44;5060106;28;20783;-76
2024/01/05 07:49:07;;;;;;;1.25;1.15;;;;;;;3.25;96.40;99650.69;5060304;28;20043;-76
2024/01/05 07:51:33;;;;;;;0.75;0.75;;;;;;;3.18;95.85;99651.22;5042229;28;20020;-76
2024/01/05 07:53:58;;;;;;;0.80;0.80;;;;;;;3.53;94.85;99657.69;5039319;28;20614;-75
2024/01/05 07:56:24;;;;;;;0.90;0.63;;;;;;;3.49;94.55;99661.34;5025202;28;20046;-76
2024/01/05 07:58:49;;;;;;;0.68;0.68;;;;;;;3.64;94.55;99663.34;5039061;28;20033;-76
2024/01/05 08:01:19;;;;;;;0.90;0.90;;;;;;;3.47;94.98;99656.34;5038134;28;20032;-75
2024/01/05 08:03:44;;;;;;;0.70;0.70;;;;;;;3.46;95.81;99654.81;5059532;28;20593;-76
2024/01/05 08:06:20;;;;;;;1.75;0.70;;;;;;;3.36;95.16;99649.94;5042743;28;20028;-77
2024/01/05 08:08:46;;;;;;;0.57;0.57;;;;;;;3.38;96.01;99642.41;5057736;28;20039;-76
2024/01/05 08:11:14;;;;;;;0.68;0.65;;;;;;;3.36;95.20;99631.31;5034642;28;20509;-78
2024/01/05 08:13:42;;;;;;;1.38;0.98;;;;;;;3.34;96.40;99638.06;5022439;28;20032;-76
2024/01/05 08:16:08;;;;;;;1.33;0.70;;;;;;;3.29;95.80;99632.97;5058077;28;20465;-77
2024/01/05 08:18:35;;;;;;;0.90;0.90;;;;;;;3.26;95.32;99636.28;5041989;28;20063;-77
2024/01/05 08:21:02;;;;;;;1.15;1.05;;;;;;;3.04;96.64;99629.47;5058657;28;20032;-77
2024/01/05 08:23:37;;;;;;;2.63;1.02;;;;;;;3.15;96.87;99635.94;5063665;28;20036;-76
2024/01/05 08:26:06;;;;;;;1.60;1.20;;;;;;;3.28;96.83;99650.03;5038438;28;20036;-76
2024/01/05 08:28:31;;;;;;;0.50;0.50;;;;;;;3.43;96.10;99631.53;5062275;28;20059;-76
2024/01/05 08:30:59;;;;;;;2.40;1.25;;;;;;;3.37;95.75;99635.50;5052759;28;20028;-76
2024/01/05 08:33:25;;;;;;;1.05;1.02;;;;;;;3.15;95.65;99641.25;5058005;28;20454;-78
2024/01/05 08:35:50;;;;;;;1.52;0.88;;;;;;;3.24;96.18;99649.91;5041187;28;20032;-77
2024/01/05 08:38:16;;;;;;;1.13;1.02;;;;;;;3.36;95.16;99654.47;5054009;28;20040;-78
2024/01/05 08:40:41;;;;;;;0.40;0.40;;;;;;;3.32;96.49;99642.94;5039557;28;20033;-76
2024/01/05 08:43:08;;;;;;;1.58;1.13;;;;;;;3.52;95.07;99650.06;5039023;28;20021;-78
2024/01/05 08:45:36;;;;;;;0.63;0.63;;;;;;;3.55;94.29;99644.84;5036767;28;20692;-77
2024/01/05 08:48:01;;;;;;;1.52;1.42;;;;;;;3.55;94.53;99657.34;5018975;28;20127;-76
2024/01/05 08:50:27;;;;;;;1.73;1.30;;;;;;;3.10;95.64;99654.75;5030174;28;20037;-76
2024/01/05 08:52:52;;;;;;;0.35;0.30;;;;;;;3.32;95.85;99657.03;5029718;28;20033;-76
2024/01/05 08:55:19;;;;;;;0.80;0.80;;;;;;;3.38;95.24;99642.41;5059678;28;21181;-76
2024/01/05 08:57:46;;;;;;;1.15;0.77;;;;;;;3.28;94.88;99634.06;5037983;28;20103;-76
2024/01/05 09:00:11;;;;;;;0.47;0.45;;;;;;;3.16;96.06;99637.47;5057655;28;20036;-76
2024/01/05 09:02:38;;;;;;;0.50;0.50;;;;;;;3.16;95.94;99642.00;5024453;28;20510;-77
2024/01/05 09:05:04;;;;;;;0.95;0.95;;;;;;;3.31;96.27;99646.72;5041637;28;20024;-76
2024/01/05 09:07:33;;;;;;;1.92;1.48;;;;;;;3.35;94.46;99639.59;5059869;28;20040;-76
2024/01/05 09:10:02;;;;;;;0.63;0.63;;;;;;;3.23;95.53;99651.00;5053795;28;20083;-77
2024/01/05 09:12:29;;;;;;;0.88;0.82;;;;;;;3.50;94.03;99652.25;5058256;28;20021;-76
2024/01/05 09:14:54;;;;;;;0.60;0.60;;;;;;;3.31;94.53;99668.75;5055383;28;20039;-76
2024/01/05 09:17:20;;;;;;;0.68;0.68;;;;;;;3.38;93.33;99655.69;5038681;28;20032;-77
2024/01/05 09:19:45;;;;;;;0.40;0.40;;;;;;;3.27;94.14;99657.22;5057666;28;20089;-76
2024/01/05 09:22:11;;;;;;;1.25;0.43;;;;;;;3.25;94.37;99670.06;5040042;28;20070;-76
2024/01/05 09:24:37;;;;;;;1.15;0.93;;;;;;;3.35;94.67;99661.66;5056897;28;20485;-76
2024/01/05 09:27:04;;;;;;;1.17;0.82;;;;;;;3.53;93.26;99662.22;5040720;28;20486;-76
2024/01/05 09:29:33;;;;;;;1.05;1.05;;;;;;;3.41;93.81;99665.66;5058138;28;20473;-76
2024/01/05 09:31:58;;;;;;;1.73;1.17;;;;;;;3.32;93.21;99649.03;5052250;28;20030;-76
2024/01/05 09:34:24;;;;;;;0.20;0.20;;;;;;;3.17;93.50;99655.00;5035953;28;20123;-74
2024/01/05 09:36:50;;;;;;;0.77;0.77;;;;;;;3.20;93.92;99650.88;5035108;28;20547;-76
2024/01/05 09:39:16;;;;;;;0.45;0.45;;;;;;;3.00;94.90;99655.16;5059898;28;20086;-76
2024/01/05 09:41:42;;;;;;;1.08;0.98;;;;;;;3.12;95.19;99657.84;5023857;28;20036;-77
2024/01/05 09:44:11;;;;;;;0.35;0.35;;;;;;;3.24;93.67;99655.22;5039746;28;20623;-77
2024/01/05 09:46:39;;;;;;;0.40;0.40;;;;;;;3.27;93.69;99640.50;5039477;28;20036;-76
2024/01/05 09:49:06;;;;;;;1.20;0.88;;;;;;;2.95;93.84;99644.75;5059722;28;20116;-77
2024/01/05 09:51:32;;;;;;;0.40;0.40;;;;;;;3.15;93.61;99648.47;5055373;28;20021;-76
2024/01/05 09:53:59;;;;;;;0.70;0.70;;;;;;;3.14;93.80;99646.88;5054965;28;20524;-76
2024/01/05 09:56:28;;;;;;;0.70;0.70;;;;;;;3.06;92.85;99647.78;5037889;28;20067;-76
2024/01/05 09:58:55;;;;;;;1.33;0.77;;;;;;;2.85;93.18;99626.56;5055692;28;20559;-76
2024/01/05 10:01:25;;;;;;;0.60;0.60;;;;;;;2.89;94.15;99643.41;5037136;28;20042;-76
2024/01/05 10:03:57;;;;;;;0.40;0.40;;;;;;;2.99;93.11;99645.66;5055374;28;20490;-75
2024/01/05 10:06:25;;;;;;;1.30;0.75;;;;;;;3.18;92.86;99656.53;5048347;28;20028;-75
2024/01/05 10:08:59;;;;;;;0.75;0.75;;;;;;;3.14;93.67;99655.66;5044758;28;20028;-75
2024/01/05 10:11:36;;;;;;;0.57;0.57;;;;;;;2.97;92.69;99647.88;5033309;28;20083;-76
2024/01/05 10:14:04;;;;;;;2.15;1.35;;;;;;;2.88;94.05;99636.56;5040973;28;20071;-75
2024/01/05 10:16:37;;;;;;;0.68;0.68;;;;;;;3.12;92.74;99636.59;5056742;28;20456;-76
2024/01/05 10:19:16;;;;;;;0.98;0.98;;;;;;;2.99;93.59;99631.56;5039391;28;20043;-75
2024/01/05 10:21:46;;;;;;;0.70;0.70;;;;;;;2.90;93.08;99634.34;5039197;28;20541;-76
2024/01/05 10:24:25;;;;;;;1.20;1.10;;;;;;;2.81;93.72;99624.91;5058877;28;20128;-75
2024/01/05 10:27:11;;;;;;;0.30;0.30;;;;;;;2.98;92.96;99624.72;5056109;28;20050;-76
2024/01/05 10:29:43;;;;;;;0.65;0.65;;;;;;;2.83;93.09;99626.09;5055833;28;20366;-75
2024/01/05 10:32:14;;;;;;;0.73;0.73;;;;;;;3.03;92.87;99624.50;5055973;28;20024;-76
2024/01/05 10:34:48;;;;;;;0.55;0.55;;;;;;;3.03;93.42;99617.31;5061707;28;20111;-76
2024/01/05 10:37:16;;;;;;;0.68;0.60;;;;;;;2.84;94.39;99617.03;5065289;28;20033;-76
2024/01/05 10:39:46;;;;;;;0.68;0.68;;;;;;;3.06;94.04;99610.56;5063487;28;20035;-77
2024/01/05 10:42:28;;;;;;;0.90;0.90;;;;;;;3.15;93.63;99613.88;5062470;28;20032;-77
2024/01/05 10:44:56;;;;;;;0.85;0.60;;;;;;;3.03;93.78;99596.03;5047106;28;20059;-76
2024/01/05 10:47:23;;;;;;;2.10;0.77;;;;;;;2.94;93.63;99598.03;5060410;28;20269;-76
2024/01/05 10:49:51;;;;;;;0.95;0.52;;;;;;;3.16;93.40;99602.91;5040194;28;20028;-76
2024/01/05 10:52:22;;;;;;;0.50;0.50;;;;;;;3.07;93.84;99612.09;5046861;28;20018;-76
2024/01/05 10:54:50;;;;;;;0.83;0.83;;;;;;;2.90;93.16;99623.72;5039209;28;20040;-75
2024/01/05 10:57:18;;;;;;;0.73;0.65;;;;;;;2.73;93.98;99614.00;5041989;28;20040;-76
2024/01/05 10:59:49;;;;;;;0.45;0.45;;;;;;;3.12;93.73;99612.66;5041673;28;20031;-76
2024/01/05 11:02:20;;;;;;;0.60;0.60;;;;;;;3.40;91.88;99618.13;5036166;28;20056;-77
2024/01/05 11:04:52;;;;;;;1.13;0.57;;;;;;;3.34;92.14;99622.09;5040775;28;20051;-76
2024/01/05 11:07:18;;;;;;;3.83;1.10;;;;;;;3.35;91.77;99608.47;5035808;28;20036;-76
2024/01/05 11:09:59;;;;;;;0.93;0.70;;;;;;;3.15;92.87;99604.03;5033820;28;20029;-76
2024/01/05 11:12:30;;;;;;;0.30;0.30;;;;;;;3.21;91.54;99600.06;5034065;28;20383;-75
2024/01/05 11:15:07;;;;;;;0.60;0.60;;;;;;;3.30;91.26;99602.59;5055802;28;20040;-75
2024/01/05 11:17:50;;;;;;;0.43;0.43;;;;;;;3.14;92.17;99601.69;5038846;28;20040;-75
2024/01/05 11:20:47;;;;;;;0.30;0.30;;;;;;;3.34;91.78;99598.94;5029761;28;20520;-75
2024/01/05 11:23:14;;;;;;;1.17;0.40;;;;;;;3.19;91.43;99602.25;5034182;28;20444;-75
2024/01/05 11:25:50;;;;;;;0.73;0.73;;;;;;;3.09;92.42;99589.41;5056272;28;20082;-75
2024/01/05 11:28:38;;;;;;;0.73;0.60;;;;;;;2.82;92.31;99592.69;5053562;28;20127;-76
2024/01/05 11:31:04;;;;;;;0.85;0.60;;;;;;;3.04;92.54;99592.25;5036275;28;20044;-75
2024/01/05 11:33:49;;;;;;;0.32;0.32;;;;;;;3.04;92.31;99581.63;5033747;28;20034;-75
2024/01/05 11:36:49;;;;;;;0.30;0.30;;;;;;;3.03;93.20;99572.09;5017736;28;20029;-76
2024/01/05 11:39:53;;;;;;;1.60;0.80;;;;;;;3.26;92.11;99557.25;5056168;28;20115;-75
2024/01/05 11:42:24;;;;;;;0.52;0.30;;;;;;;3.27;92.32;99576.66;5058933;28;20119;-75
2024/01/05 11:44:50;;;;;;;;;;;;;;;3.21;91.02;99565.47;5056842;28;20036;-74
2024/01/05 11:47:41;;;;;;;0.90;0.68;;;;;;;3.00;92.03;99574.66;5055396;28;19965;-74
2024/01/05 11:50:26;;;;;;;0.20;0.20;;;;;;;3.10;91.71;99556.38;5056363;28;20036;-75